Russell, KS

15:00 CST le 23 novembre 2014 (GMT -0600)
Great Bend Municipal | Change Station
CLOSE
Current Station
Aéroport
Location: Great Bend,
Altitude: 1886 ft
Stations météo à proximité
Avis météorologiques actifs: Wind Advisory Préavis actif: Public Information Statement

Alt. 1886 ft 38.34 °N, 98.86 °W | Updated 5 minutes ago

Couvert
Couvert
45 ° F
Paraît 36 ° F
N
25
Vent Variable Vent de Nord
Gusts 31 mph

Aujourd'hui
Haut(e) -- | Bas -- ° F
--% Risque de précip.
Hier
Haut(e) -- | Bas -- ° F
Precip. -- pouce
7:26 AM 5:16 PM
Nouvelle lune, 2% visible
Pression 29.55 pouce
Visibilité 10.0 Miles terrestres
Nuages Couvert 9000 ft
Refroidissement éolien 36 ° F
Point de rosée 34 ° F
Humidité 66%
Précipitations 0.00 pouce
Profondeur de la couche neigeuse Non disponible.
UV 1 sur 12
Pollen .10 sur 12
Qualité de l'air Non disponible.
Flu Activity Non disponible.
METAR KGBD 232055Z AUTO 35022G27KT 10SM OVC090 07/01 A2955 RMK AO1 52003

More Conditions Fewer Conditions

Pression 29.55 pouce
Visibilité 10.0 Miles terrestres
Nuages Couvert 9000 ft
Refroidissement éolien 36 ° F
Point de rosée 34 ° F
Humidité 66%
Précipitations 0.00 pouce
Profondeur de la couche neigeuse Non disponible.
UV 1 sur 12
Pollen .10 sur 12
Qualité de l'air Non disponible.
Flu Activity Non disponible.
METAR KGBD 232055Z AUTO 35022G27KT 10SM OVC090 07/01 A2955 RMK AO1 52003

More Conditions Fewer Conditions

10-Day Weather Forecast

Almanac

Astronomie

Nov. 23, 2014 Lever Coucher
Temps réel
Crépuscule civil
Crépuscule nautique
Crépuscule astronomique
Lune
Durée de lumière visible
Longueur du jour
Tomorrow will be .
, % of the Moon is Illuminated

Extrêmes aujourd'hui

State Highs State Lows

Community

WunderPhotos

Upload Photos

1,773,176 Photos téléchargées !

WunderBlogs® & News

Nearby

Qualité de l'air

  Qualité de l'air Indice de la qualité de l'air Polluant
Not available.

Épaisseur de neige

Station Depth Altitude

Activité sismique

Ville Distance Mag. Time & Date
Minimum magnitude displayed is 2.5.

Températures des eaux côtières

Lieu Température

Stations météo à proximité